Mathilde Maersk — OUJS2 — position and weather

sailwx.info

Track history (hours):
 
Tides and Currents Weather Stations Pressure Air Temp Water Temp Dewpoint Dewpoint Depression Visibility Wind Speed Wind Dir Waves Ship Positions

Mathilde Maersk

Last reported at 2016-Aug-18 06:26 UTC. Time now 2016-Aug-25 00:56 UTC.
Position N 02°03' E 102°07'.

Length 367 m; draft 12.2 m.

Type: Ship (hazmat cat B). MMSI: 220597990.

Date/timePositionNaut miles runAvg speedWind from/ knotsBaromVisibWave heightAir tempDewpointWater temp
2016-Aug-18 06:26N 02°03' E 102°07'1719.7
2016-Aug-18 05:33N 01°53' E 102°22'1919.3
2016-Aug-18 04:33N 01°45' E 102°39'6716.8
2016-Aug-18 00:33N 01°11' E 103°37'1111.1
2016-Aug-17 23:31N 01°13' E 103°48'5 5.0
2016-Aug-17 22:31N 01°17' E 103°45'0 0.0
2016-Aug-17 21:25N 01°17' E 103°45'0 0.0
2016-Aug-17 20:28N 01°17' E 103°45'0 0.0
2016-Aug-17 19:31N 01°17' E 103°45'0 0.0
2016-Aug-17 17:19N 01°17' E 103°45'0 0.0
2016-Aug-17 12:13N 01°17' E 103°45'0 0.0
2016-Aug-17 10:19N 01°17' E 103°45'0 0.0
2016-Aug-17 04:16N 01°17' E 103°45'0 0.0
2016-Aug-17 03:28N 01°17' E 103°45'0 0.3
2016-Aug-17 02:33N 01°16' E 103°45'6 5.8
2016-Aug-17 01:34N 01°12' E 103°50'8 8.4
2016-Aug-17 00:34N 01°15' E 103°58'  
2016-Aug-14 03:27N 22°17' E 114°06'1210.9
2016-Aug-14 02:24N 22°22' E 113°54'6 6.7
2016-Aug-14 01:33N 22°27' E 113°53'0 0.2
2016-Aug-14 00:33N 22°28' E 113°53'0 0.0
2016-Aug-13 23:27N 22°28' E 113°53'0 0.0
2016-Aug-13 22:30N 22°28' E 113°53'0 0.0
2016-Aug-13 21:33N 22°28' E 113°53'0 0.0
2016-Aug-13 20:33N 22°28' E 113°53'0 0.0
2016-Aug-13 19:30N 22°28' E 113°53'0 0.0
2016-Aug-13 18:33N 22°28' E 113°53'0 0.0
2016-Aug-13 17:33N 22°28' E 113°53'0 0.0
2016-Aug-13 16:33N 22°28' E 113°53'0 0.0
2016-Aug-13 15:33N 22°28' E 113°53'0 0.0
2016-Aug-13 14:33N 22°28' E 113°53'0 0.0
2016-Aug-13 13:33N 22°28' E 113°53'0 0.0
2016-Aug-13 12:33N 22°28' E 113°53'0 0.0
2016-Aug-13 11:27N 22°28' E 113°53'0 0.0
2016-Aug-13 10:33N 22°28' E 113°53'0 0.4
2016-Aug-13 09:33N 22°27' E 113°53'11 8.5
2016-Aug-13 08:17N 22°21' E 114°02'14512.2
2016-Aug-12 20:23N 22°49' E 116°37'1214.4
2016-Aug-12 19:33N 22°56' E 116°47'13714.8
2016-Aug-12 10:16N 24°13' E 118°51'1014.0
2016-Aug-12 09:33N 24°19' E 119°00'1413.8
2016-Aug-12 08:33N 24°28' E 119°11'34414.9
2016-Aug-11 09:32N 29°23' E 122°31'1717.2
2016-Aug-11 08:32N 29°40' E 122°29'1612.7
2016-Aug-11 07:18N 29°49' E 122°14'912.0
2016-Aug-11 06:32N 29°55' E 122°06'4 0.9
2016-Aug-11 02:19N 29°53' E 122°02'0 0.0
2016-Aug-10 22:25N 29°53' E 122°02'0 0.0
2016-Aug-10 16:31N 29°53' E 122°02'0 0.0
2016-Aug-10 13:07N 29°53' E 122°02'0 0.0
2016-Aug-10 06:25N 29°53' E 122°02'0 0.1
2016-Aug-10 05:33N 29°54' E 122°03'9 9.2
2016-Aug-10 04:33N 29°50' E 122°13'1110.6
2016-Aug-10 03:33N 29°44' E 122°22'1110.7
2016-Aug-10 02:33N 29°47' E 122°34'1815.3
2016-Aug-10 01:22N 29°57' E 122°52'2713.4
2016-Aug-09 23:23N 30°23' E 122°46'20 0.8
2016-Aug-08 21:33N 30°32' E 122°25'1313.1
2016-Aug-08 20:33N 30°33' E 122°41'1212.4
2016-Aug-08 19:33N 30°35' E 122°55'  
Track history (hours):
 
Tides and Currents Weather Stations Pressure Air Temp Water Temp Dewpoint Dewpoint Depression Visibility Wind Speed Wind Dir Waves Ship Positions

Mathilde Maersk

Last reported at 2016-Aug-18 06:26 UTC. Time now 2016-Aug-25 00:56 UTC.
Position N 02°03' E 102°07'.

Length 367 m; draft 12.2 m.

Type: Ship (hazmat cat B). MMSI: 220597990.

Date/timePositionNaut miles runAvg speedWind from/ knotsBaromVisibWave heightAir tempDewpointWater temp
2016-Aug-18 06:26N 02°03' E 102°07'1719.7
2016-Aug-18 05:33N 01°53' E 102°22'1919.3
2016-Aug-18 04:33N 01°45' E 102°39'6716.8
2016-Aug-18 00:33N 01°11' E 103°37'1111.1
2016-Aug-17 23:31N 01°13' E 103°48'5 5.0
2016-Aug-17 22:31N 01°17' E 103°45'0 0.0
2016-Aug-17 21:25N 01°17' E 103°45'0 0.0
2016-Aug-17 20:28N 01°17' E 103°45'0 0.0
2016-Aug-17 19:31N 01°17' E 103°45'0 0.0
2016-Aug-17 17:19N 01°17' E 103°45'0 0.0
2016-Aug-17 12:13N 01°17' E 103°45'0 0.0
2016-Aug-17 10:19N 01°17' E 103°45'0 0.0
2016-Aug-17 04:16N 01°17' E 103°45'0 0.0
2016-Aug-17 03:28N 01°17' E 103°45'0 0.3
2016-Aug-17 02:33N 01°16' E 103°45'6 5.8
2016-Aug-17 01:34N 01°12' E 103°50'8 8.4
2016-Aug-17 00:34N 01°15' E 103°58'  
2016-Aug-14 03:27N 22°17' E 114°06'1210.9
2016-Aug-14 02:24N 22°22' E 113°54'6 6.7
2016-Aug-14 01:33N 22°27' E 113°53'0 0.2
2016-Aug-14 00:33N 22°28' E 113°53'0 0.0
2016-Aug-13 23:27N 22°28' E 113°53'0 0.0
2016-Aug-13 22:30N 22°28' E 113°53'0 0.0
2016-Aug-13 21:33N 22°28' E 113°53'0 0.0
2016-Aug-13 20:33N 22°28' E 113°53'0 0.0
2016-Aug-13 19:30N 22°28' E 113°53'0 0.0
2016-Aug-13 18:33N 22°28' E 113°53'0 0.0
2016-Aug-13 17:33N 22°28' E 113°53'0 0.0
2016-Aug-13 16:33N 22°28' E 113°53'0 0.0
2016-Aug-13 15:33N 22°28' E 113°53'0 0.0
2016-Aug-13 14:33N 22°28' E 113°53'0 0.0
2016-Aug-13 13:33N 22°28' E 113°53'0 0.0
2016-Aug-13 12:33N 22°28' E 113°53'0 0.0
2016-Aug-13 11:27N 22°28' E 113°53'0 0.0
2016-Aug-13 10:33N 22°28' E 113°53'0 0.4
2016-Aug-13 09:33N 22°27' E 113°53'11 8.5
2016-Aug-13 08:17N 22°21' E 114°02'14512.2
2016-Aug-12 20:23N 22°49' E 116°37'1214.4
2016-Aug-12 19:33N 22°56' E 116°47'13714.8
2016-Aug-12 10:16N 24°13' E 118°51'1014.0
2016-Aug-12 09:33N 24°19' E 119°00'1413.8
2016-Aug-12 08:33N 24°28' E 119°11'34414.9
2016-Aug-11 09:32N 29°23' E 122°31'1717.2
2016-Aug-11 08:32N 29°40' E 122°29'1612.7
2016-Aug-11 07:18N 29°49' E 122°14'912.0
2016-Aug-11 06:32N 29°55' E 122°06'4 0.9
2016-Aug-11 02:19N 29°53' E 122°02'0 0.0
2016-Aug-10 22:25N 29°53' E 122°02'0 0.0
2016-Aug-10 16:31N 29°53' E 122°02'0 0.0
2016-Aug-10 13:07N 29°53' E 122°02'0 0.0
2016-Aug-10 06:25N 29°53' E 122°02'0 0.1
2016-Aug-10 05:33N 29°54' E 122°03'9 9.2
2016-Aug-10 04:33N 29°50' E 122°13'1110.6
2016-Aug-10 03:33N 29°44' E 122°22'1110.7
2016-Aug-10 02:33N 29°47' E 122°34'1815.3
2016-Aug-10 01:22N 29°57' E 122°52'2713.4
2016-Aug-09 23:23N 30°23' E 122°46'20 0.8
2016-Aug-08 21:33N 30°32' E 122°25'1313.1
2016-Aug-08 20:33N 30°33' E 122°41'1212.4
2016-Aug-08 19:33N 30°35' E 122°55'  

Dump ship's entire track history